Time;durP1;ratioP1;P1;durP2;ratioP2;P2;SDS_P1;SDS_P2;PMS_P1;PMS_P2;Temp;Humidity;BMP_temperature;BMP_pressure;BME280_temperature;BME280_humidity;BME280_pressure;Samples;Min_cycle;Max_cycle;Signal;HPM_P1;HPM_P2
2022/08/01 00:00:37;;;;;;;2.05;0.75;;;21.80;99.90;;;21.38;100.00;97648.56;4953882;28;20447;-65
2022/08/01 00:03:04;;;;;;;1.38;0.70;;;21.80;99.90;;;21.47;100.00;97643.34;4939515;28;20130;-65
2022/08/01 00:05:31;;;;;;;1.95;0.60;;;21.80;99.90;;;21.28;100.00;97644.06;4939802;28;20047;-65
2022/08/01 00:07:58;;;;;;;2.55;0.80;;;21.70;99.90;;;21.13;100.00;97647.19;4939832;28;20063;-65
2022/08/01 00:10:25;;;;;;;1.95;0.70;;;21.70;99.90;;;21.14;100.00;97654.94;4942811;28;20202;-65
2022/08/01 00:12:52;;;;;;;3.05;0.70;;;21.60;99.90;;;21.14;100.00;97656.75;4940519;28;20424;-65
2022/08/01 00:15:19;;;;;;;2.33;0.75;;;21.60;99.90;;;21.20;100.00;97649.16;4941927;28;20540;-65
2022/08/01 00:17:46;;;;;;;2.85;0.80;;;21.50;99.90;;;21.09;100.00;97657.16;4956468;28;20066;-65
2022/08/01 00:20:14;;;;;;;2.15;0.90;;;21.50;99.90;;;21.03;100.00;97658.50;4941161;28;20053;-65
2022/08/01 00:22:41;;;;;;;2.08;0.80;;;21.50;99.90;;;21.00;100.00;97664.03;4941655;28;20528;-65
2022/08/01 00:25:09;;;;;;;4.38;0.77;;;21.40;99.90;;;21.13;100.00;97655.09;4944287;28;20684;-65
2022/08/01 00:27:36;;;;;;;2.63;0.60;;;21.50;99.90;;;21.13;100.00;97657.75;4942917;28;20669;-65
2022/08/01 00:30:05;;;;;;;1.92;0.73;;;21.50;99.90;;;21.10;100.00;97656.19;4938570;28;20110;-65
2022/08/01 00:32:43;;;;;;;1.40;0.60;;;21.50;99.90;;;21.03;100.00;97661.16;4937580;28;20133;-65
2022/08/01 00:35:11;;;;;;;2.05;0.70;;;21.50;99.90;;;20.94;100.00;97661.94;4938186;28;20061;-65
2022/08/01 00:37:38;;;;;;;1.60;0.70;;;21.40;99.90;;;21.02;100.00;97664.75;4939631;28;20134;-65
2022/08/01 00:40:06;;;;;;;2.08;0.60;;;21.40;99.90;;;20.89;100.00;97670.22;4942807;28;20051;-65
2022/08/01 00:42:33;;;;;;;2.13;0.85;;;21.40;99.90;;;20.74;100.00;97666.22;4937147;28;20082;-64
2022/08/01 00:45:06;;;;;;;;;;;21.30;99.90;;;20.62;100.00;97669.88;4940746;28;20078;-65
2022/08/01 00:47:33;;;;;;;2.38;0.70;;;21.30;99.90;;;20.75;100.00;97669.69;4943528;28;19981;-65
2022/08/01 00:50:00;;;;;;;4.53;0.80;;;21.20;99.90;;;20.89;100.00;97661.44;4938790;28;20043;-65
2022/08/01 00:52:27;;;;;;;2.85;0.63;;;21.30;99.90;;;20.89;100.00;97664.09;4953027;28;20572;-65
2022/08/01 00:54:54;;;;;;;1.20;0.60;;;21.30;99.90;;;20.96;100.00;97664.41;4939137;28;20077;-65
2022/08/01 00:57:25;;;;;;;1.55;0.50;;;21.30;99.90;;;21.01;100.00;97654.34;4937507;28;20134;-65
2022/08/01 01:00:13;;;;;;;1.33;0.70;;;21.30;99.90;;;20.84;100.00;97651.28;4941460;28;20048;-65
2022/08/01 01:02:41;;;;;;;3.05;0.80;;;21.30;99.90;;;20.74;100.00;97653.03;4955205;28;20043;-65
2022/08/01 01:05:08;;;;;;;1.45;0.60;;;21.30;99.90;;;20.83;100.00;97652.25;4953855;28;20052;-65
2022/08/01 01:07:54;;;;;;;2.22;0.60;;;21.30;99.90;;;20.87;100.00;97658.13;4940754;28;20134;-65
2022/08/01 01:10:58;;;;;;;1.17;0.60;;;21.40;99.90;;;20.73;100.00;97659.25;4955492;28;20066;-65
2022/08/01 01:13:44;;;;;;;1.30;0.50;;;21.30;99.90;;;20.84;100.00;97661.00;4940316;28;20082;-65
2022/08/01 01:16:19;;;;;;;0.90;0.50;;;21.30;99.90;;;20.79;100.00;97661.38;4953427;28;20055;-65
2022/08/01 01:19:02;;;;;;;2.35;0.50;;;21.40;99.90;;;20.91;100.00;97653.41;4956698;28;20139;-65
2022/08/01 01:21:51;;;;;;;1.48;0.80;;;21.30;99.90;;;20.58;100.00;97664.00;4937884;28;20130;-65
2022/08/01 01:25:10;;;;;;;2.55;0.70;;;21.30;99.90;;;20.64;100.00;97666.16;4939975;28;20552;-65
2022/08/01 01:28:10;;;;;;;1.88;0.60;;;21.20;99.90;;;20.46;100.00;97670.25;4941334;28;20049;-65
2022/08/01 01:30:40;;;;;;;5.57;0.60;;;21.10;99.90;;;20.23;100.00;97670.31;4951932;28;20169;-65
2022/08/01 01:33:10;;;;;;;1.00;0.60;;;21.00;99.90;;;20.27;100.00;97682.28;4955540;28;20051;-65
2022/08/01 01:35:46;;;;;;;2.15;0.70;;;21.00;99.90;;;20.23;100.00;97677.34;4962792;28;20061;-65
2022/08/01 01:38:28;;;;;;;1.00;0.60;;;20.90;99.90;;;20.36;100.00;97683.31;4954376;28;20149;-65
2022/08/01 01:40:57;;;;;;;1.97;0.70;;;20.90;99.90;;;20.38;100.00;97672.66;4940019;28;20045;-65
2022/08/01 01:43:24;;;;;;;1.30;0.65;;;20.80;99.90;;;20.20;100.00;97688.16;4954665;28;20134;-65
2022/08/01 01:46:02;;;;;;;1.92;0.70;;;20.80;99.90;;;20.23;100.00;97678.22;4952550;28;20485;-65
2022/08/01 01:48:30;;;;;;;1.00;0.60;;;20.80;99.90;;;20.30;100.00;97673.28;4941630;28;20416;-65
2022/08/01 01:50:57;;;;;;;1.35;0.70;;;20.80;99.90;;;20.29;100.00;97683.97;4940952;28;20078;-65
2022/08/01 01:53:26;;;;;;;1.70;0.70;;;20.80;99.90;;;20.20;100.00;97683.72;4942998;28;20054;-65
2022/08/01 01:55:57;;;;;;;1.38;0.60;;;20.70;99.90;;;20.08;100.00;97691.78;4954514;28;20647;-64
2022/08/01 01:58:26;;;;;;;3.85;0.70;;;20.70;99.90;;;20.19;100.00;97681.22;4943417;28;20075;-65
2022/08/01 02:00:56;;;;;;;1.13;0.57;;;20.60;99.90;;;20.21;100.00;97685.41;4951583;28;20054;-65
2022/08/01 02:03:26;;;;;;;1.10;0.65;;;20.70;99.90;;;20.15;100.00;97680.63;4957965;28;20141;-65
2022/08/01 02:05:54;;;;;;;1.20;0.63;;;20.60;99.90;;;20.28;100.00;97677.84;4944064;28;20097;-65
2022/08/01 02:08:23;;;;;;;1.45;0.50;;;20.70;99.90;;;20.22;100.00;97667.78;4958555;28;20508;-65
2022/08/01 02:13:41;;;;;;;4.00;0.60;;;20.60;99.90;;;20.02;100.00;97667.56;4946071;28;20130;-65
2022/08/01 02:16:11;;;;;;;2.22;0.50;;;20.60;99.90;;;20.17;100.00;97672.59;4955614;28;20143;-65
2022/08/01 02:18:38;;;;;;;1.75;0.70;;;20.50;99.90;;;19.93;100.00;97675.38;4944264;28;20043;-65
2022/08/01 02:21:11;;;;;;;1.73;0.75;;;20.60;99.90;;;19.97;100.00;97687.34;4958619;28;20384;-65
2022/08/01 02:23:40;;;;;;;1.73;0.60;;;20.50;99.90;;;20.09;100.00;97665.28;4940997;28;20122;-65
2022/08/01 02:26:15;;;;;;;1.25;0.50;;;20.50;99.90;;;20.04;100.00;97675.38;4956362;28;20134;-65
2022/08/01 02:28:53;;;;;;;2.25;0.63;;;20.50;99.90;;;19.91;100.00;97687.84;4938598;28;20047;-65
2022/08/01 02:31:22;;;;;;;2.25;0.70;;;20.40;99.90;;;19.64;100.00;97689.84;4955400;28;20066;-64
2022/08/01 02:34:03;;;;;;;3.67;0.60;;;20.30;99.90;;;19.43;100.00;97699.41;4943338;28;20388;-64
2022/08/01 02:36:35;;;;;;;1.58;0.70;;;20.20;99.90;;;19.55;100.00;97695.00;4956181;28;20043;-65
2022/08/01 02:39:08;;;;;;;2.03;0.77;;;20.10;99.90;;;19.42;100.00;97700.38;4956489;28;20043;-65
2022/08/01 02:41:42;;;;;;;1.25;0.60;;;20.10;99.90;;;19.54;100.00;97704.69;4943634;28;20061;-64
2022/08/01 02:44:16;;;;;;;1.10;0.60;;;20.10;99.90;;;19.56;100.00;97701.94;4942152;28;20047;-64
2022/08/01 02:46:56;;;;;;;2.90;0.65;;;20.10;99.90;;;19.48;100.00;97707.81;4940390;28;20127;-65
2022/08/01 02:49:25;;;;;;;1.17;0.60;;;20.00;99.90;;;19.38;100.00;97709.44;4939584;28;20516;-64
2022/08/01 02:51:55;;;;;;;1.58;0.50;;;20.00;99.90;;;19.53;100.00;97704.81;4954147;28;20114;-65
2022/08/01 02:54:23;;;;;;;0.98;0.60;;;20.10;99.90;;;19.61;100.00;97700.63;4954678;28;20087;-65
2022/08/01 02:56:51;;;;;;;3.53;1.05;;;20.10;99.90;;;19.46;100.00;97703.63;4952590;28;20807;-64
2022/08/01 02:59:25;;;;;;;1.02;0.55;;;20.10;99.90;;;19.54;100.00;97714.38;4956586;28;20098;-64
2022/08/01 03:01:55;;;;;;;1.15;0.73;;;20.10;99.90;;;19.55;100.00;97716.06;4939632;28;20098;-64
2022/08/01 03:04:24;;;;;;;3.22;0.60;;;20.10;99.90;;;19.62;100.00;97707.56;4940781;28;20544;-65
2022/08/01 03:06:57;;;;;;;3.00;0.60;;;20.10;99.90;;;19.51;100.00;97709.34;4942230;28;20141;-65
2022/08/01 03:09:26;;;;;;;1.38;0.70;;;20.10;99.90;;;19.64;100.00;97707.47;4952877;28;20154;-65
2022/08/01 03:11:59;;;;;;;1.35;0.60;;;20.10;99.90;;;19.58;100.00;97710.56;4952861;28;20537;-64
2022/08/01 03:14:27;;;;;;;1.35;0.70;;;20.10;99.90;;;19.59;100.00;97706.94;4956355;28;20545;-65
2022/08/01 03:16:56;;;;;;;2.83;0.50;;;20.10;99.90;;;19.63;100.00;97711.03;4954073;28;20047;-65
2022/08/01 03:19:26;;;;;;;1.50;0.60;;;20.20;99.90;;;19.62;100.00;97718.09;4956156;28;20178;-65
2022/08/01 03:21:54;;;;;;;2.25;0.52;;;20.10;99.90;;;19.73;100.00;97712.03;4952380;28;20494;-65
2022/08/01 03:24:23;;;;;;;1.85;0.68;;;20.10;99.90;;;19.76;100.00;97711.78;4955281;28;20158;-65
2022/08/01 03:26:53;;;;;;;3.38;0.70;;;20.20;99.90;;;19.80;100.00;97709.78;4953130;28;20126;-65
2022/08/01 03:29:25;;;;;;;2.83;0.60;;;20.20;99.90;;;19.81;100.00;97704.38;4953667;28;20067;-65
2022/08/01 03:31:53;;;;;;;1.10;0.50;;;20.20;99.90;;;19.72;100.00;97707.72;4954872;28;20135;-65
2022/08/01 03:34:23;;;;;;;2.15;0.80;;;20.20;99.90;;;19.73;100.00;97719.09;4954582;28;20105;-65
2022/08/01 03:37:11;;;;;;;0.90;0.50;;;20.10;99.90;;;19.75;100.00;97714.53;4935512;28;20043;-65
2022/08/01 03:39:58;;;;;;;2.13;0.70;;;20.10;99.90;;;19.48;100.00;97720.97;4939649;28;20462;-65
2022/08/01 03:42:34;;;;;;;2.55;0.75;;;20.10;99.90;;;19.09;100.00;97723.03;4957071;28;20051;-65
2022/08/01 03:45:10;;;;;;;2.47;0.77;;;20.00;99.90;;;18.75;100.00;97740.44;4938233;28;20061;-65
2022/08/01 03:47:44;;;;;;;2.33;0.73;;;19.80;99.90;;;18.59;100.00;97746.81;4955600;28;20442;-64
2022/08/01 03:50:14;;;;;;;3.15;0.80;;;19.60;99.90;;;18.47;100.00;97749.47;4939657;28;20055;-65
2022/08/01 03:52:45;;;;;;;2.83;1.05;;;19.40;99.90;;;18.37;100.00;97759.81;4953318;28;20088;-65
2022/08/01 03:55:16;;;;;;;1.50;0.80;;;19.30;99.90;;;18.38;100.00;97759.72;4954031;28;20209;-65
2022/08/01 03:57:46;;;;;;;2.00;0.80;;;19.20;99.90;;;18.26;100.00;97763.19;4954606;28;20047;-64
2022/08/01 04:00:18;;;;;;;1.83;0.98;;;19.10;99.90;;;18.16;100.00;97772.69;4952403;28;20059;-64
2022/08/01 04:02:49;;;;;;;2.10;1.00;;;19.00;99.90;;;18.18;100.00;97766.38;4953157;28;20098;-63
2022/08/01 04:05:17;;;;;;;2.08;0.90;;;18.90;99.90;;;18.13;100.00;97776.38;4938756;28;20047;-64
2022/08/01 04:07:55;;;;;;;1.58;0.93;;;18.90;99.90;;;18.29;100.00;97770.88;4953872;28;20063;-64
2022/08/01 04:10:23;;;;;;;1.55;0.82;;;18.80;99.90;;;18.23;100.00;97775.72;4954420;28;20058;-65
2022/08/01 04:12:51;;;;;;;2.38;1.00;;;18.90;99.90;;;18.10;100.00;97776.56;4939882;28;20050;-65
2022/08/01 04:15:20;;;;;;;4.03;1.00;;;18.80;99.90;;;18.22;100.00;97774.88;4941440;28;21001;-65
2022/08/01 04:17:47;;;;;;;2.65;1.00;;;18.90;99.90;;;18.33;100.00;97776.75;4942421;28;20066;-64
2022/08/01 04:20:15;;;;;;;2.47;1.10;;;18.80;99.90;;;18.64;100.00;97766.69;4940898;28;20055;-64
2022/08/01 04:22:42;;;;;;;2.75;0.82;;;19.00;99.90;;;18.67;100.00;97756.75;4942245;28;20044;-64
2022/08/01 04:25:34;;;;;;;2.55;0.70;;;19.00;99.90;;;18.71;100.00;97758.22;4943232;28;20126;-63
2022/08/01 04:28:03;;;;;;;4.60;1.00;;;19.10;99.90;;;18.64;100.00;97754.38;4957553;28;20468;-66
2022/08/01 04:30:34;;;;;;;1.75;0.80;;;19.10;99.90;;;18.51;100.00;97772.81;4958044;28;20082;-64
2022/08/01 04:33:05;;;;;;;2.25;1.05;;;19.10;99.90;;;18.34;100.00;97771.38;4956086;28;20161;-64
2022/08/01 04:35:34;;;;;;;1.98;1.00;;;19.10;99.90;;;18.09;100.00;97787.22;4942356;28;20412;-66
2022/08/01 04:38:27;;;;;;;1.20;0.77;;;19.00;99.90;;;18.16;100.00;97796.34;4951640;28;20357;-65
2022/08/01 04:40:55;;;;;;;2.42;1.17;;;18.90;99.90;;;17.97;100.00;97807.25;4942146;28;20516;-65
2022/08/01 04:43:22;;;;;;;1.52;1.02;;;18.80;99.90;;;17.81;100.00;97811.84;4940135;28;20436;-66
2022/08/01 04:45:51;;;;;;;2.30;1.10;;;18.80;99.90;;;17.78;100.00;97823.41;4937176;28;20055;-65
2022/08/01 04:48:21;;;;;;;2.45;1.30;;;18.80;99.90;;;17.64;100.00;97826.97;4942454;28;20477;-66
2022/08/01 04:50:49;;;;;;;4.78;1.10;;;18.80;99.90;;;17.62;100.00;97833.28;4942960;28;20123;-66
2022/08/01 04:53:21;;;;;;;3.28;1.38;;;18.70;99.90;;;17.66;100.00;97837.38;4936652;28;20056;-65
2022/08/01 04:55:48;;;;;;;3.38;1.50;;;18.80;99.90;;;17.76;100.00;97839.25;4937239;28;20055;-65
2022/08/01 04:58:15;;;;;;;1.85;1.23;;;18.80;99.90;;;17.82;100.00;97842.47;4953927;28;20070;-65
2022/08/01 05:00:45;;;;;;;3.80;1.23;;;18.80;99.90;;;17.81;100.00;97838.13;4939144;28;20047;-65
2022/08/01 05:03:12;;;;;;;3.00;1.23;;;18.80;99.90;;;17.84;100.00;97841.41;4939224;28;20461;-65
2022/08/01 05:05:40;;;;;;;4.53;1.40;;;18.80;99.90;;;17.81;100.00;97838.97;4939738;28;20061;-66
2022/08/01 05:08:07;;;;;;;4.72;1.52;;;18.80;99.90;;;17.89;100.00;97836.69;4937766;28;20596;-66
2022/08/01 05:10:34;;;;;;;2.70;1.20;;;18.80;99.90;;;18.42;100.00;97827.81;4945189;29;20134;-65
2022/08/01 05:13:01;;;;;;;1.83;0.90;;;18.90;99.90;;;18.50;100.00;97817.63;4959565;28;20074;-64
2022/08/01 05:15:28;;;;;;;3.65;1.00;;;19.10;99.90;;;18.54;100.00;97816.41;4944386;28;20472;-64
2022/08/01 05:17:56;;;;;;;1.38;0.90;;;19.20;99.90;;;18.80;100.00;97804.09;4942110;28;20370;-65
2022/08/01 05:20:23;;;;;;;1.85;0.90;;;19.30;99.90;;;19.07;100.00;97797.75;4941614;28;20058;-63
2022/08/01 05:22:50;;;;;;;3.70;1.20;;;19.50;99.90;;;18.85;100.00;97795.88;4945338;29;20643;-65
2022/08/01 05:25:17;;;;;;;1.98;0.82;;;19.70;99.90;;;19.05;100.00;97808.41;4944748;29;20420;-63
2022/08/01 05:27:52;;;;;;;2.95;0.80;;;19.70;99.90;;;19.23;100.00;97809.66;4944010;28;20111;-65
2022/08/01 05:30:20;;;;;;;3.20;0.90;;;19.80;99.90;;;19.13;100.00;97813.91;4941302;28;20755;-64
2022/08/01 05:32:47;;;;;;;2.50;0.90;;;19.90;99.90;;;19.36;100.00;97801.72;4945040;28;20915;-64
2022/08/01 05:35:14;;;;;;;0.77;0.50;;;20.00;99.90;;;19.76;100.00;97788.16;4950436;28;20452;-64
2022/08/01 05:37:40;;;;;;;2.53;0.80;;;20.20;99.90;;;19.95;100.00;97792.03;4945546;28;20397;-64
2022/08/01 05:40:08;;;;;;;1.35;0.77;;;20.40;99.90;;;20.09;100.00;97789.13;4942618;29;20043;-64
2022/08/01 05:42:35;;;;;;;1.90;0.70;;;;;;;20.38;100.00;97786.84;4956359;28;20075;-64
2022/08/01 05:45:03;;;;;;;2.08;0.70;;;21.00;99.90;;;20.33;100.00;97775.84;4941946;28;20087;-63
2022/08/01 05:47:30;;;;;;;1.08;0.50;;;21.10;99.90;;;19.76;100.00;97784.72;4941636;29;20551;-66
2022/08/01 05:49:57;;;;;;;2.03;0.85;;;21.00;99.90;;;19.76;100.00;97782.06;4947546;28;20055;-63
2022/08/01 05:52:24;;;;;;;1.42;0.60;;;20.90;99.90;;;19.76;100.00;97793.44;4945310;28;20628;-66
2022/08/01 05:54:51;;;;;;;1.35;0.57;;;20.80;99.90;;;19.81;100.00;97785.19;4945849;28;20050;-63
2022/08/01 05:57:18;;;;;;;1.60;0.70;;;20.80;99.90;;;19.85;100.00;97787.47;4943973;28;20153;-65
2022/08/01 05:59:44;;;;;;;1.30;0.50;;;20.90;99.90;;;19.87;100.00;97787.34;4939344;28;20467;-65
2022/08/01 06:02:11;;;;;;;3.38;0.65;;;20.90;99.90;;;20.04;100.00;97783.41;4949046;28;20083;-65
2022/08/01 06:04:38;;;;;;;1.77;0.63;;;20.90;99.90;;;20.28;100.00;97785.91;4950464;28;20047;-65
2022/08/01 06:07:05;;;;;;;1.65;0.80;;;21.10;99.90;;;20.22;100.00;97778.50;4945294;28;20066;-65
2022/08/01 06:09:32;;;;;;;4.07;0.73;;;21.20;99.90;;;20.28;100.00;97778.03;4944939;28;20079;-65
2022/08/01 06:11:59;;;;;;;1.63;0.70;;;21.20;99.90;;;20.38;100.00;97789.50;4943923;28;20162;-65
2022/08/01 06:14:26;;;;;;;1.58;0.70;;;21.10;99.90;;;20.20;100.00;97786.50;4958393;28;20051;-65
2022/08/01 06:16:54;;;;;;;0.95;0.60;;;21.10;99.90;;;20.10;100.00;97790.00;4943233;28;20150;-65
2022/08/01 06:19:20;;;;;;;1.42;0.80;;;21.10;99.90;;;20.17;100.00;97799.09;4947243;28;20082;-65
2022/08/01 06:21:47;;;;;;;2.17;0.60;;;21.20;99.90;;;20.05;100.00;97800.91;4961655;28;20043;-65
2022/08/01 06:24:14;;;;;;;2.75;0.80;;;21.30;99.90;;;19.83;100.00;97801.72;4947506;28;20514;-65
2022/08/01 06:26:42;;;;;;;3.17;0.75;;;21.40;99.90;;;20.26;100.00;97807.13;4946342;28;20057;-66
2022/08/01 06:29:09;;;;;;;2.70;0.60;;;21.40;99.90;;;20.17;100.00;97799.94;4948676;28;20134;-66
2022/08/01 06:31:38;;;;;;;2.60;0.73;;;21.50;99.90;;;20.20;100.00;97799.69;4944402;28;20489;-65
2022/08/01 06:34:05;;;;;;;4.05;0.88;;;21.60;99.90;;;20.80;100.00;97794.97;4944663;28;20050;-66
2022/08/01 06:36:32;;;;;;;2.38;0.70;;;21.70;99.90;;;21.23;100.00;97790.59;4945576;28;20106;-65
2022/08/01 06:38:59;;;;;;;2.08;0.70;;;22.10;99.90;;;21.58;100.00;97773.69;4958893;28;20138;-65
2022/08/01 06:41:26;;;;;;;2.40;0.73;;;22.50;99.90;;;21.77;100.00;97765.84;4946390;28;20523;-65
2022/08/01 06:43:53;;;;;;;1.27;0.60;;;22.70;99.90;;;21.96;100.00;97753.69;4947518;28;20134;-64
2022/08/01 06:46:20;;;;;;;2.50;0.80;;;22.80;99.90;;;21.82;100.00;97754.88;4948689;28;20043;-65
2022/08/01 06:48:47;;;;;;;0.85;0.52;;;22.80;99.90;;;22.05;100.00;97750.25;4946483;28;20133;-63
2022/08/01 06:51:17;;;;;;;2.50;0.73;;;22.80;99.90;;;22.26;100.00;97745.78;4943548;28;20134;-64
2022/08/01 06:53:44;;;;;;;2.05;0.50;;;23.00;99.90;;;21.92;100.00;97742.56;4946216;28;20078;-64
2022/08/01 06:56:11;;;;;;;1.20;0.60;;;22.90;99.90;;;22.30;100.00;97746.34;4940106;28;20133;-64
2022/08/01 06:58:38;;;;;;;1.70;0.60;;;23.10;99.90;;;21.29;100.00;97753.16;4941763;28;20043;-64
2022/08/01 07:01:06;;;;;;;1.50;0.50;;;23.00;99.90;;;22.00;100.00;97748.00;4953864;28;20134;-64
2022/08/01 07:03:35;;;;;;;1.38;0.50;;;23.00;99.90;;;21.99;100.00;97745.53;4942564;28;21553;-64
2022/08/01 07:06:25;;;;;;;0.80;0.50;;;23.10;99.90;;;22.07;100.00;97746.50;4934189;29;20062;-64
2022/08/01 07:08:53;;;;;;;1.95;0.57;;;23.20;99.90;;;22.57;100.00;97736.94;4958352;28;20061;-64
2022/08/01 07:11:24;;;;;;;3.03;0.60;;;23.40;99.90;;;22.94;100.00;97731.81;4942026;28;20134;-64
2022/08/01 07:13:51;;;;;;;1.00;0.45;;;23.70;99.90;;;22.57;100.00;97724.53;4956993;28;20051;-64
2022/08/01 07:16:18;;;;;;;1.58;0.63;;;23.80;99.90;;;21.98;100.00;97741.19;4939322;28;20079;-64
2022/08/01 07:18:45;;;;;;;1.33;0.70;;;23.70;99.90;;;21.93;100.00;97737.13;4938735;28;20133;-64
2022/08/01 07:21:12;;;;;;;1.85;0.52;;;23.50;99.90;;;22.46;100.00;97735.25;4942766;28;20079;-64
2022/08/01 07:23:59;;;;;;;1.42;0.50;;;23.30;99.90;;;22.96;100.00;97728.03;4943533;28;20053;-64
2022/08/01 07:26:27;;;;;;;1.63;0.40;;;23.60;99.90;;;23.24;100.00;97706.19;4942957;29;20055;-64
2022/08/01 07:28:54;;;;;;;1.80;0.50;;;23.80;99.90;;;22.83;100.00;97722.22;4939288;28;20083;-64
2022/08/01 07:31:22;;;;;;;2.78;0.70;;;23.80;99.90;;;22.41;100.00;97738.28;4938111;28;20508;-64
2022/08/01 07:33:50;;;;;;;2.15;0.60;;;23.60;99.90;;;22.86;100.00;97727.22;4939151;28;20571;-64
2022/08/01 07:36:18;;;;;;;1.50;0.60;;;23.70;99.90;;;23.08;100.00;97720.84;4938287;28;20057;-64
2022/08/01 07:38:45;;;;;;;2.40;0.65;;;23.90;99.90;;;22.62;100.00;97729.41;4941520;28;20044;-64
2022/08/01 07:41:13;;;;;;;2.03;0.60;;;23.70;99.90;;;22.08;100.00;97742.91;4938612;28;20050;-64
2022/08/01 07:43:40;;;;;;;1.33;0.70;;;23.70;99.90;;;21.79;100.00;97734.84;4955071;28;20079;-64
2022/08/01 07:46:19;;;;;;;2.45;0.68;;;23.40;99.90;;;21.90;100.00;97742.69;4939436;28;20139;-64
2022/08/01 07:48:46;;;;;;;1.40;0.70;;;23.30;99.90;;;21.78;100.00;97749.03;4940709;28;20520;-64
2022/08/01 07:51:13;;;;;;;1.92;0.50;;;23.30;99.90;;;22.80;100.00;97732.22;4941046;28;20165;-64
2022/08/01 07:53:40;;;;;;;1.00;0.50;;;23.30;99.90;;;23.18;100.00;97720.84;4940785;28;20047;-64
2022/08/01 07:56:07;;;;;;;3.38;0.68;;;23.70;99.90;;;23.34;100.00;97718.44;4940509;28;20051;-64
2022/08/01 07:58:34;;;;;;;1.27;0.50;;;24.20;99.90;;;23.15;100.00;97731.72;4938822;28;20051;-65
2022/08/01 08:01:01;;;;;;;3.30;0.60;;;24.20;99.90;;;22.66;100.00;97730.81;4939580;28;20130;-64
2022/08/01 08:03:28;;;;;;;1.20;0.60;;;24.00;99.90;;;22.78;100.00;97729.72;4938113;29;20043;-64
2022/08/01 08:05:56;;;;;;;1.63;0.43;;;24.00;99.90;;;22.79;100.00;97722.63;4953518;28;20326;-64
2022/08/01 08:08:27;;;;;;;1.17;0.43;;;23.90;99.90;;;23.00;100.00;97723.34;4939402;28;20063;-64
2022/08/01 08:10:54;;;;;;;1.30;0.57;;;24.10;99.90;;;22.26;100.00;97742.28;4941064;28;20043;-64
2022/08/01 08:13:21;;;;;;;3.50;0.77;;;24.00;99.90;;;22.79;100.00;97736.69;4938050;28;20146;-64
2022/08/01 08:15:48;;;;;;;2.45;0.60;;;23.90;99.90;;;23.41;100.00;97731.94;4936706;28;20155;-64
2022/08/01 08:18:16;;;;;;;1.38;0.50;;;24.00;99.90;;;23.02;100.00;97717.91;4939008;28;20499;-64
2022/08/01 08:20:43;;;;;;;1.33;0.50;;;24.10;99.90;;;23.20;100.00;97732.13;4941161;28;20163;-64
2022/08/01 08:26:12;;;;;;;1.95;0.50;;;24.50;99.90;;;23.36;100.00;97727.06;4941278;29;20078;-64
2022/08/01 08:28:39;;;;;;;2.35;0.60;;;24.70;99.90;;;24.08;100.00;97718.63;4953379;28;20114;-64
2022/08/01 08:31:08;;;;;;;1.08;0.40;;;24.90;99.90;;;24.31;100.00;97708.47;4937614;28;20085;-64
2022/08/01 08:33:52;;;;;;;3.97;0.40;;;24.90;99.90;;;23.78;100.00;97702.03;4940656;28;20043;-64
2022/08/01 08:36:18;;;;;;;1.38;0.40;;;25.00;99.90;;;24.25;100.00;97706.44;4935798;29;20530;-64
2022/08/01 08:38:46;;;;;;;4.28;0.40;;;25.00;99.90;;;24.08;100.00;97703.56;4935936;28;20326;-64
2022/08/01 08:41:14;;;;;;;3.33;0.82;;;25.20;99.90;;;23.99;100.00;97699.13;4938176;29;20059;-64
2022/08/01 08:43:47;;;;;;;1.88;0.50;;;25.20;99.90;;;23.17;100.00;97713.84;4950081;28;20051;-64
2022/08/01 08:46:14;;;;;;;1.50;0.60;;;25.00;99.90;;;23.30;100.00;97721.50;4954152;28;20627;-64
2022/08/01 08:48:41;;;;;;;1.77;0.40;;;24.80;99.90;;;23.75;100.00;97703.16;4943305;28;20090;-64
2022/08/01 08:51:11;;;;;;;2.00;0.50;;;24.80;99.90;;;23.35;100.00;97706.00;4944580;28;20083;-63
2022/08/01 08:53:44;;;;;;;1.10;0.50;;;24.90;99.90;;;22.81;100.00;97705.63;4955114;28;20600;-64
2022/08/01 08:56:13;;;;;;;1.20;0.47;;;24.80;99.90;;;23.44;100.00;97699.03;4940640;28;20082;-66
2022/08/01 08:58:45;;;;;;;1.08;0.50;;;24.80;99.90;;;23.82;100.00;97695.47;4942541;28;20137;-64
2022/08/01 09:01:13;;;;;;;2.85;0.40;;;25.00;99.90;;;23.23;100.00;97700.06;4941033;28;20146;-64
2022/08/01 09:03:40;;;;;;;0.90;0.40;;;25.00;99.90;;;23.59;100.00;97695.78;4939856;28;20114;-64
2022/08/01 09:06:08;;;;;;;2.03;0.50;;;24.80;99.90;;;23.23;100.00;97707.16;4957751;28;20039;-64
2022/08/01 09:08:35;;;;;;;1.75;0.40;;;24.80;99.90;;;23.89;100.00;97703.66;4943859;28;20132;-64
2022/08/01 09:11:03;;;;;;;1.15;0.38;;;24.80;99.90;;;24.06;100.00;97710.00;4941214;28;20066;-64
2022/08/01 09:13:30;;;;;;;1.20;0.40;;;25.00;99.90;;;24.29;100.00;97707.78;4943800;28;20127;-66
2022/08/01 09:15:58;;;;;;;2.35;0.40;;;25.10;99.90;;;23.65;100.00;97706.78;4938227;28;20103;-64
2022/08/01 09:18:27;;;;;;;2.85;0.50;;;25.20;99.90;;;23.77;100.00;97711.78;4942198;28;20079;-64
2022/08/01 09:21:19;;;;;;;1.27;0.40;;;25.30;99.90;;;23.17;100.00;97714.72;4940630;28;20138;-64
2022/08/01 09:23:47;;;;;;;1.23;0.43;;;25.30;99.90;;;23.15;100.00;97716.66;4939134;28;20475;-64
2022/08/01 09:26:33;;;;;;;4.68;0.40;;;25.10;99.90;;;23.39;100.00;97705.59;4940558;28;20103;-64
2022/08/01 09:29:07;;;;;;;1.10;0.30;;;24.90;99.90;;;23.08;100.00;97723.50;4943544;28;20143;-66
2022/08/01 09:31:41;;;;;;;1.00;0.40;;;24.70;99.90;;;23.38;100.00;97727.78;4955484;28;20054;-66
2022/08/01 09:34:16;;;;;;;0.60;0.30;;;24.70;99.90;;;23.71;100.00;97716.81;4943682;28;20642;-63
2022/08/01 09:36:58;;;;;;;1.55;0.32;;;24.70;99.90;;;23.87;100.00;97725.00;4946741;28;20119;-66
2022/08/01 09:39:33;;;;;;;2.00;0.40;;;25.00;99.90;;;23.46;100.00;97724.41;4938529;28;20570;-64
2022/08/01 09:42:19;;;;;;;1.38;0.40;;;25.00;99.90;;;23.48;100.00;97724.25;4944070;28;20170;-64
2022/08/01 09:44:54;;;;;;;0.75;0.32;;;25.10;99.90;;;23.56;100.00;97703.16;4952989;28;20063;-64
2022/08/01 09:47:22;;;;;;;0.55;0.28;;;25.10;99.90;;;23.21;100.00;97719.72;4939481;28;20142;-64
2022/08/01 09:49:56;;;;;;;0.90;0.40;;;25.00;99.90;;;23.74;100.00;97716.50;4940755;28;20055;-64
2022/08/01 09:52:26;;;;;;;1.20;0.30;;;25.00;99.90;;;24.09;100.00;97707.06;4939707;28;20083;-64
2022/08/01 09:55:05;;;;;;;2.88;0.40;;;25.10;99.90;;;23.64;100.00;97700.66;4939998;28;20501;-64
2022/08/01 09:57:32;;;;;;;4.10;0.40;;;25.10;99.90;;;23.57;100.00;97713.63;4941835;28;21836;-64
2022/08/01 10:00:01;;;;;;;1.45;0.30;;;25.20;99.90;;;24.53;100.00;97707.25;4942822;28;20066;-65
2022/08/01 10:02:38;;;;;;;1.48;0.30;;;25.70;99.90;;;25.23;100.00;97699.44;4942949;28;20047;-65
2022/08/01 10:05:10;;;;;;;1.35;0.40;;;26.20;99.90;;;24.07;100.00;97717.81;4944061;28;20146;-65
2022/08/01 10:07:58;;;;;;;0.77;0.32;;;26.30;99.90;;;24.50;100.00;97704.91;4941469;28;20055;-65
2022/08/01 10:10:25;;;;;;;0.73;0.40;;;26.00;99.90;;;24.49;100.00;97719.97;4944781;28;20055;-65
2022/08/01 10:12:57;;;;;;;1.13;0.50;;;25.90;99.90;;;24.91;100.00;97708.78;4945950;28;20099;-64
2022/08/01 10:15:27;;;;;;;4.88;0.50;;;25.80;99.90;;;24.15;100.00;97709.97;4941099;28;20062;-65
2022/08/01 10:18:07;;;;;;;1.35;0.50;;;25.80;99.90;;;23.55;100.00;97723.53;4941057;28;20126;-66
2022/08/01 10:20:52;;;;;;;2.08;0.70;;;25.40;99.90;;;23.43;100.00;97711.44;4952408;28;20164;-66
2022/08/01 10:23:24;;;;;;;1.52;0.60;;;25.20;99.90;;;23.56;100.00;97711.13;4952623;28;20055;-66
2022/08/01 10:26:10;;;;;;;2.08;0.60;;;25.20;99.90;;;23.64;100.00;97718.38;4943749;28;20074;-66
2022/08/01 10:28:39;;;;;;;2.70;0.60;;;25.20;99.90;;;24.69;100.00;97714.53;4955706;28;20063;-66
2022/08/01 10:31:08;;;;;;;3.17;0.57;;;25.40;99.90;;;24.35;100.00;97721.28;4957262;28;20078;-66
2022/08/01 10:33:41;;;;;;;1.02;0.70;;;25.60;99.90;;;23.97;100.00;97728.47;4953677;28;20124;-66